sensor_id;sensor_type;location;lat;lon;timestamp;P1;durP1;ratioP1;P2;durP2;ratioP2
21569;SDS011;57598;50.888;4.746;2023-04-15T00:01:52;37.17;;;34.83;;
21569;SDS011;57598;50.888;4.746;2023-04-15T00:04:19;38.20;;;35.70;;
21569;SDS011;57598;50.888;4.746;2023-04-15T00:06:50;37.92;;;35.45;;
21569;SDS011;57598;50.888;4.746;2023-04-15T00:09:18;38.85;;;36.33;;
21569;SDS011;57598;50.888;4.746;2023-04-15T00:11:46;37.42;;;35.03;;
21569;SDS011;57598;50.888;4.746;2023-04-15T00:14:14;36.67;;;34.38;;
21569;SDS011;57598;50.888;4.746;2023-04-15T00:16:43;37.53;;;35.22;;
21569;SDS011;57598;50.888;4.746;2023-04-15T00:19:10;35.80;;;33.60;;
21569;SDS011;57598;50.888;4.746;2023-04-15T00:21:37;36.75;;;34.45;;
21569;SDS011;57598;50.888;4.746;2023-04-15T00:24:04;37.50;;;35.15;;
21569;SDS011;57598;50.888;4.746;2023-04-15T00:26:32;37.20;;;34.90;;
21569;SDS011;57598;50.888;4.746;2023-04-15T00:28:59;35.70;;;33.50;;
21569;SDS011;57598;50.888;4.746;2023-04-15T00:31:26;36.25;;;34.05;;
21569;SDS011;57598;50.888;4.746;2023-04-15T00:33:55;36.45;;;34.25;;
21569;SDS011;57598;50.888;4.746;2023-04-15T00:36:22;37.67;;;35.38;;
21569;SDS011;57598;50.888;4.746;2023-04-15T00:38:50;36.03;;;33.83;;
21569;SDS011;57598;50.888;4.746;2023-04-15T00:41:18;36.53;;;34.33;;
21569;SDS011;57598;50.888;4.746;2023-04-15T00:43:47;35.85;;;33.65;;
21569;SDS011;57598;50.888;4.746;2023-04-15T00:46:14;35.85;;;33.65;;
21569;SDS011;57598;50.888;4.746;2023-04-15T00:48:43;35.63;;;33.42;;
21569;SDS011;57598;50.888;4.746;2023-04-15T00:51:12;36.05;;;33.85;;
21569;SDS011;57598;50.888;4.746;2023-04-15T00:53:40;35.20;;;33.10;;
21569;SDS011;57598;50.888;4.746;2023-04-15T00:56:07;35.92;;;33.72;;
21569;SDS011;57598;50.888;4.746;2023-04-15T00:58:35;34.60;;;32.60;;
21569;SDS011;57598;50.888;4.746;2023-04-15T01:01:02;35.03;;;32.92;;
21569;SDS011;57598;50.888;4.746;2023-04-15T01:03:30;34.28;;;32.17;;
21569;SDS011;57598;50.888;4.746;2023-04-15T01:06:00;34.78;;;32.78;;
21569;SDS011;57598;50.888;4.746;2023-04-15T01:08:29;34.58;;;32.58;;
21569;SDS011;57598;50.888;4.746;2023-04-15T01:10:57;33.90;;;31.90;;
21569;SDS011;57598;50.888;4.746;2023-04-15T01:13:27;34.90;;;32.90;;
21569;SDS011;57598;50.888;4.746;2023-04-15T01:15:56;33.90;;;31.90;;
21569;SDS011;57598;50.888;4.746;2023-04-15T01:18:23;32.63;;;30.73;;
21569;SDS011;57598;50.888;4.746;2023-04-15T01:20:51;32.70;;;30.80;;
21569;SDS011;57598;50.888;4.746;2023-04-15T01:23:19;32.95;;;31.05;;
21569;SDS011;57598;50.888;4.746;2023-04-15T01:25:49;33.72;;;31.73;;
21569;SDS011;57598;50.888;4.746;2023-04-15T01:28:16;33.67;;;31.67;;
21569;SDS011;57598;50.888;4.746;2023-04-15T01:30:44;34.22;;;32.22;;
21569;SDS011;57598;50.888;4.746;2023-04-15T01:33:11;34.58;;;32.47;;
21569;SDS011;57598;50.888;4.746;2023-04-15T01:35:38;33.95;;;31.95;;
21569;SDS011;57598;50.888;4.746;2023-04-15T01:38:08;35.22;;;33.13;;
21569;SDS011;57598;50.888;4.746;2023-04-15T01:40:37;35.75;;;33.65;;
21569;SDS011;57598;50.888;4.746;2023-04-15T01:43:06;35.65;;;33.25;;
21569;SDS011;57598;50.888;4.746;2023-04-15T01:45:33;36.08;;;33.90;;
21569;SDS011;57598;50.888;4.746;2023-04-15T01:48:00;35.75;;;33.55;;
21569;SDS011;57598;50.888;4.746;2023-04-15T01:50:27;36.92;;;34.63;;
21569;SDS011;57598;50.888;4.746;2023-04-15T01:52:54;37.22;;;34.92;;
21569;SDS011;57598;50.888;4.746;2023-04-15T01:55:21;37.08;;;34.78;;
21569;SDS011;57598;50.888;4.746;2023-04-15T01:57:48;38.13;;;35.72;;
21569;SDS011;57598;50.888;4.746;2023-04-15T02:00:17;38.67;;;36.17;;
21569;SDS011;57598;50.888;4.746;2023-04-15T02:02:48;38.35;;;35.85;;
21569;SDS011;57598;50.888;4.746;2023-04-15T02:05:15;40.90;;;38.20;;
21569;SDS011;57598;50.888;4.746;2023-04-15T02:07:42;42.40;;;39.30;;
21569;SDS011;57598;50.888;4.746;2023-04-15T02:10:10;42.15;;;39.25;;
21569;SDS011;57598;50.888;4.746;2023-04-15T02:12:37;40.67;;;37.88;;
21569;SDS011;57598;50.888;4.746;2023-04-15T02:15:14;41.25;;;38.35;;
21569;SDS011;57598;50.888;4.746;2023-04-15T02:17:43;41.05;;;38.15;;
21569;SDS011;57598;50.888;4.746;2023-04-15T02:20:14;42.28;;;39.28;;
21569;SDS011;57598;50.888;4.746;2023-04-15T02:22:43;41.60;;;38.50;;
21569;SDS011;57598;50.888;4.746;2023-04-15T02:25:10;41.88;;;38.97;;
21569;SDS011;57598;50.888;4.746;2023-04-15T02:27:37;41.88;;;38.88;;
21569;SDS011;57598;50.888;4.746;2023-04-15T02:30:05;42.35;;;39.15;;
21569;SDS011;57598;50.888;4.746;2023-04-15T02:32:33;40.92;;;38.03;;
21569;SDS011;57598;50.888;4.746;2023-04-15T02:35:04;40.38;;;37.58;;
21569;SDS011;57598;50.888;4.746;2023-04-15T02:37:34;42.70;;;39.70;;
21569;SDS011;57598;50.888;4.746;2023-04-15T02:40:06;41.65;;;38.75;;
21569;SDS011;57598;50.888;4.746;2023-04-15T02:42:37;41.05;;;38.15;;
21569;SDS011;57598;50.888;4.746;2023-04-15T02:45:05;40.45;;;37.58;;
21569;SDS011;57598;50.888;4.746;2023-04-15T02:47:33;40.58;;;37.72;;
21569;SDS011;57598;50.888;4.746;2023-04-15T02:50:01;40.70;;;37.80;;
21569;SDS011;57598;50.888;4.746;2023-04-15T02:52:30;40.05;;;37.22;;
21569;SDS011;57598;50.888;4.746;2023-04-15T02:54:58;40.30;;;37.40;;
21569;SDS011;57598;50.888;4.746;2023-04-15T02:57:26;39.58;;;36.67;;
21569;SDS011;57598;50.888;4.746;2023-04-15T02:59:54;41.42;;;38.42;;
21569;SDS011;57598;50.888;4.746;2023-04-15T03:02:21;41.30;;;38.33;;
21569;SDS011;57598;50.888;4.746;2023-04-15T03:04:49;40.30;;;37.40;;
21569;SDS011;57598;50.888;4.746;2023-04-15T03:07:16;41.25;;;38.35;;
21569;SDS011;57598;50.888;4.746;2023-04-15T03:09:45;42.25;;;39.25;;
21569;SDS011;57598;50.888;4.746;2023-04-15T03:12:13;42.50;;;39.50;;
21569;SDS011;57598;50.888;4.746;2023-04-15T03:14:40;41.35;;;38.38;;
21569;SDS011;57598;50.888;4.746;2023-04-15T03:17:07;42.97;;;39.88;;
21569;SDS011;57598;50.888;4.746;2023-04-15T03:19:34;42.80;;;39.70;;
21569;SDS011;57598;50.888;4.746;2023-04-15T03:22:01;43.38;;;40.17;;
21569;SDS011;57598;50.888;4.746;2023-04-15T03:24:28;44.00;;;40.80;;
21569;SDS011;57598;50.888;4.746;2023-04-15T03:26:57;44.42;;;41.22;;
21569;SDS011;57598;50.888;4.746;2023-04-15T03:29:25;48.15;;;44.63;;
21569;SDS011;57598;50.888;4.746;2023-04-15T03:31:52;43.60;;;40.47;;
21569;SDS011;57598;50.888;4.746;2023-04-15T03:34:19;43.78;;;40.47;;
21569;SDS011;57598;50.888;4.746;2023-04-15T03:36:46;43.92;;;40.63;;
21569;SDS011;57598;50.888;4.746;2023-04-15T03:39:14;45.33;;;41.92;;
21569;SDS011;57598;50.888;4.746;2023-04-15T03:41:41;45.70;;;42.30;;
21569;SDS011;57598;50.888;4.746;2023-04-15T03:44:09;46.65;;;43.15;;
21569;SDS011;57598;50.888;4.746;2023-04-15T03:46:37;44.90;;;41.40;;
21569;SDS011;57598;50.888;4.746;2023-04-15T03:49:05;48.45;;;44.85;;
21569;SDS011;57598;50.888;4.746;2023-04-15T03:51:32;47.75;;;43.47;;
21569;SDS011;57598;50.888;4.746;2023-04-15T03:53:59;45.33;;;41.92;;
21569;SDS011;57598;50.888;4.746;2023-04-15T03:56:27;46.97;;;43.47;;
21569;SDS011;57598;50.888;4.746;2023-04-15T03:58:54;47.75;;;44.15;;
21569;SDS011;57598;50.888;4.746;2023-04-15T04:01:23;46.35;;;42.85;;
21569;SDS011;57598;50.888;4.746;2023-04-15T04:03:50;47.50;;;43.90;;
21569;SDS011;57598;50.888;4.746;2023-04-15T04:06:19;46.88;;;43.28;;
21569;SDS011;57598;50.888;4.746;2023-04-15T04:08:46;46.85;;;43.25;;
21569;SDS011;57598;50.888;4.746;2023-04-15T04:11:13;46.90;;;43.33;;
21569;SDS011;57598;50.888;4.746;2023-04-15T04:13:41;47.10;;;43.50;;
21569;SDS011;57598;50.888;4.746;2023-04-15T04:16:08;46.90;;;43.30;;
21569;SDS011;57598;50.888;4.746;2023-04-15T04:18:36;45.60;;;42.05;;
21569;SDS011;57598;50.888;4.746;2023-04-15T04:21:03;46.42;;;42.83;;
21569;SDS011;57598;50.888;4.746;2023-04-15T04:23:31;45.10;;;41.60;;
21569;SDS011;57598;50.888;4.746;2023-04-15T04:25:58;46.33;;;42.88;;
21569;SDS011;57598;50.888;4.746;2023-04-15T04:28:25;46.63;;;43.13;;
21569;SDS011;57598;50.888;4.746;2023-04-15T04:30:52;45.80;;;42.35;;
21569;SDS011;57598;50.888;4.746;2023-04-15T04:33:19;46.30;;;42.80;;
21569;SDS011;57598;50.888;4.746;2023-04-15T04:35:48;45.78;;;42.28;;
21569;SDS011;57598;50.888;4.746;2023-04-15T04:38:15;44.53;;;41.03;;
21569;SDS011;57598;50.888;4.746;2023-04-15T04:40:42;45.10;;;41.60;;
21569;SDS011;57598;50.888;4.746;2023-04-15T04:43:09;45.97;;;42.47;;
21569;SDS011;57598;50.888;4.746;2023-04-15T04:45:35;45.67;;;42.17;;
21569;SDS011;57598;50.888;4.746;2023-04-15T04:48:03;45.78;;;42.25;;
21569;SDS011;57598;50.888;4.746;2023-04-15T04:50:31;46.22;;;42.72;;
21569;SDS011;57598;50.888;4.746;2023-04-15T04:52:59;44.72;;;41.22;;
21569;SDS011;57598;50.888;4.746;2023-04-15T04:55:26;45.60;;;42.10;;
21569;SDS011;57598;50.888;4.746;2023-04-15T04:57:54;45.55;;;42.05;;
21569;SDS011;57598;50.888;4.746;2023-04-15T05:00:21;45.58;;;42.17;;
21569;SDS011;57598;50.888;4.746;2023-04-15T05:02:48;46.25;;;42.65;;
21569;SDS011;57598;50.888;4.746;2023-04-15T05:05:15;46.13;;;42.63;;
21569;SDS011;57598;50.888;4.746;2023-04-15T05:07:42;46.40;;;42.90;;
21569;SDS011;57598;50.888;4.746;2023-04-15T05:12:44;47.05;;;43.40;;
21569;SDS011;57598;50.888;4.746;2023-04-15T05:15:11;43.90;;;40.63;;
21569;SDS011;57598;50.888;4.746;2023-04-15T05:17:39;44.80;;;41.50;;
21569;SDS011;57598;50.888;4.746;2023-04-15T05:20:06;44.85;;;41.55;;
21569;SDS011;57598;50.888;4.746;2023-04-15T05:22:34;43.05;;;39.88;;
21569;SDS011;57598;50.888;4.746;2023-04-15T05:25:02;42.53;;;39.42;;
21569;SDS011;57598;50.888;4.746;2023-04-15T05:27:39;42.92;;;39.72;;
21569;SDS011;57598;50.888;4.746;2023-04-15T05:30:06;41.83;;;38.72;;
21569;SDS011;57598;50.888;4.746;2023-04-15T05:32:34;42.60;;;39.60;;
21569;SDS011;57598;50.888;4.746;2023-04-15T05:35:01;44.42;;;41.22;;
21569;SDS011;57598;50.888;4.746;2023-04-15T05:37:28;43.83;;;40.70;;
21569;SDS011;57598;50.888;4.746;2023-04-15T05:39:55;42.45;;;39.45;;
21569;SDS011;57598;50.888;4.746;2023-04-15T05:42:22;41.63;;;38.63;;
21569;SDS011;57598;50.888;4.746;2023-04-15T05:44:51;41.42;;;38.53;;
21569;SDS011;57598;50.888;4.746;2023-04-15T05:47:18;41.58;;;38.67;;
21569;SDS011;57598;50.888;4.746;2023-04-15T05:49:45;41.63;;;38.63;;
21569;SDS011;57598;50.888;4.746;2023-04-15T05:52:13;42.38;;;39.38;;
21569;SDS011;57598;50.888;4.746;2023-04-15T05:54:40;40.25;;;37.45;;
21569;SDS011;57598;50.888;4.746;2023-04-15T05:57:07;39.90;;;37.10;;
21569;SDS011;57598;50.888;4.746;2023-04-15T05:59:35;41.40;;;38.40;;
21569;SDS011;57598;50.888;4.746;2023-04-15T06:02:04;39.83;;;37.03;;
21569;SDS011;57598;50.888;4.746;2023-04-15T06:04:31;40.08;;;37.28;;
21569;SDS011;57598;50.888;4.746;2023-04-15T06:06:58;39.80;;;37.10;;
21569;SDS011;57598;50.888;4.746;2023-04-15T06:09:25;38.10;;;35.50;;
21569;SDS011;57598;50.888;4.746;2023-04-15T06:11:52;39.17;;;36.50;;
21569;SDS011;57598;50.888;4.746;2023-04-15T06:14:23;41.55;;;38.75;;
21569;SDS011;57598;50.888;4.746;2023-04-15T06:16:53;39.00;;;36.25;;
21569;SDS011;57598;50.888;4.746;2023-04-15T06:19:21;37.47;;;34.97;;
21569;SDS011;57598;50.888;4.746;2023-04-15T06:21:48;36.85;;;34.45;;
21569;SDS011;57598;50.888;4.746;2023-04-15T06:24:15;38.17;;;35.58;;
21569;SDS011;57598;50.888;4.746;2023-04-15T06:26:42;37.28;;;34.88;;
21569;SDS011;57598;50.888;4.746;2023-04-15T06:29:09;35.47;;;33.17;;
21569;SDS011;57598;50.888;4.746;2023-04-15T06:31:36;35.00;;;32.70;;
21569;SDS011;57598;50.888;4.746;2023-04-15T06:34:04;36.75;;;34.35;;
21569;SDS011;57598;50.888;4.746;2023-04-15T06:36:32;35.22;;;32.92;;
21569;SDS011;57598;50.888;4.746;2023-04-15T06:38:59;35.45;;;33.15;;
21569;SDS011;57598;50.888;4.746;2023-04-15T06:41:26;35.00;;;32.70;;
21569;SDS011;57598;50.888;4.746;2023-04-15T06:43:53;35.00;;;32.70;;
21569;SDS011;57598;50.888;4.746;2023-04-15T06:46:20;34.03;;;31.83;;
21569;SDS011;57598;50.888;4.746;2023-04-15T06:48:48;34.08;;;31.88;;
21569;SDS011;57598;50.888;4.746;2023-04-15T06:51:15;34.13;;;31.92;;
21569;SDS011;57598;50.888;4.746;2023-04-15T06:53:43;33.55;;;31.35;;
21569;SDS011;57598;50.888;4.746;2023-04-15T06:56:10;33.70;;;31.50;;
21569;SDS011;57598;50.888;4.746;2023-04-15T06:58:37;34.55;;;32.30;;
21569;SDS011;57598;50.888;4.746;2023-04-15T07:01:04;32.60;;;30.50;;
21569;SDS011;57598;50.888;4.746;2023-04-15T07:03:31;31.65;;;29.65;;
21569;SDS011;57598;50.888;4.746;2023-04-15T07:05:59;34.08;;;31.38;;
21569;SDS011;57598;50.888;4.746;2023-04-15T07:08:30;34.33;;;31.80;;
21569;SDS011;57598;50.888;4.746;2023-04-15T07:10:59;32.58;;;30.58;;
21569;SDS011;57598;50.888;4.746;2023-04-15T07:13:26;32.33;;;30.33;;
21569;SDS011;57598;50.888;4.746;2023-04-15T07:15:55;40.45;;;37.80;;
21569;SDS011;57598;50.888;4.746;2023-04-15T07:18:22;29.38;;;27.33;;
21569;SDS011;57598;50.888;4.746;2023-04-15T07:20:49;23.77;;;22.27;;
21569;SDS011;57598;50.888;4.746;2023-04-15T07:23:16;22.48;;;21.15;;
21569;SDS011;57598;50.888;4.746;2023-04-15T07:25:43;22.38;;;21.05;;
21569;SDS011;57598;50.888;4.746;2023-04-15T07:28:12;23.77;;;21.95;;
21569;SDS011;57598;50.888;4.746;2023-04-15T07:30:39;20.33;;;19.13;;
21569;SDS011;57598;50.888;4.746;2023-04-15T07:33:07;20.70;;;19.50;;
21569;SDS011;57598;50.888;4.746;2023-04-15T07:35:34;19.50;;;18.40;;
21569;SDS011;57598;50.888;4.746;2023-04-15T07:38:01;24.05;;;21.65;;
21569;SDS011;57598;50.888;4.746;2023-04-15T07:40:28;22.05;;;20.65;;
21569;SDS011;57598;50.888;4.746;2023-04-15T07:42:55;23.27;;;21.55;;
21569;SDS011;57598;50.888;4.746;2023-04-15T07:45:23;21.30;;;19.80;;
21569;SDS011;57598;50.888;4.746;2023-04-15T07:47:51;21.95;;;20.40;;
21569;SDS011;57598;50.888;4.746;2023-04-15T07:50:20;20.83;;;19.27;;
21569;SDS011;57598;50.888;4.746;2023-04-15T07:52:47;21.17;;;19.88;;
21569;SDS011;57598;50.888;4.746;2023-04-15T07:55:15;21.08;;;19.83;;
21569;SDS011;57598;50.888;4.746;2023-04-15T07:57:44;19.65;;;18.45;;
21569;SDS011;57598;50.888;4.746;2023-04-15T08:00:13;21.02;;;19.73;;
21569;SDS011;57598;50.888;4.746;2023-04-15T08:02:41;19.42;;;18.33;;
21569;SDS011;57598;50.888;4.746;2023-04-15T08:05:10;20.90;;;19.03;;
21569;SDS011;57598;50.888;4.746;2023-04-15T08:07:38;20.88;;;19.48;;
21569;SDS011;57598;50.888;4.746;2023-04-15T08:10:06;20.00;;;18.67;;
21569;SDS011;57598;50.888;4.746;2023-04-15T08:12:34;23.35;;;21.38;;
21569;SDS011;57598;50.888;4.746;2023-04-15T08:15:01;23.23;;;21.58;;
21569;SDS011;57598;50.888;4.746;2023-04-15T08:17:28;19.88;;;18.67;;
21569;SDS011;57598;50.888;4.746;2023-04-15T08:19:56;19.83;;;18.63;;
21569;SDS011;57598;50.888;4.746;2023-04-15T08:22:23;21.40;;;20.00;;
21569;SDS011;57598;50.888;4.746;2023-04-15T08:24:51;21.20;;;19.80;;
21569;SDS011;57598;50.888;4.746;2023-04-15T08:27:18;19.60;;;18.40;;
21569;SDS011;57598;50.888;4.746;2023-04-15T08:29:45;20.60;;;19.27;;
21569;SDS011;57598;50.888;4.746;2023-04-15T08:32:12;18.30;;;17.20;;
21569;SDS011;57598;50.888;4.746;2023-04-15T08:34:39;27.20;;;19.48;;
21569;SDS011;57598;50.888;4.746;2023-04-15T08:37:07;20.08;;;18.83;;
21569;SDS011;57598;50.888;4.746;2023-04-15T08:39:34;21.45;;;19.73;;
21569;SDS011;57598;50.888;4.746;2023-04-15T08:42:02;21.73;;;20.25;;
21569;SDS011;57598;50.888;4.746;2023-04-15T08:44:32;22.25;;;20.80;;
21569;SDS011;57598;50.888;4.746;2023-04-15T08:47:01;21.85;;;20.50;;
21569;SDS011;57598;50.888;4.746;2023-04-15T08:49:28;24.05;;;22.05;;
21569;SDS011;57598;50.888;4.746;2023-04-15T08:51:56;21.33;;;19.85;;
21569;SDS011;57598;50.888;4.746;2023-04-15T08:54:26;22.45;;;20.48;;
21569;SDS011;57598;50.888;4.746;2023-04-15T08:56:53;21.45;;;19.95;;
21569;SDS011;57598;50.888;4.746;2023-04-15T08:59:20;24.30;;;22.23;;
21569;SDS011;57598;50.888;4.746;2023-04-15T09:01:47;23.42;;;21.80;;
21569;SDS011;57598;50.888;4.746;2023-04-15T09:04:15;20.10;;;18.90;;
21569;SDS011;57598;50.888;4.746;2023-04-15T09:06:43;23.67;;;22.00;;
21569;SDS011;57598;50.888;4.746;2023-04-15T09:09:11;22.40;;;20.17;;
21569;SDS011;57598;50.888;4.746;2023-04-15T09:11:40;20.42;;;19.20;;
21569;SDS011;57598;50.888;4.746;2023-04-15T09:14:08;23.45;;;21.80;;
21569;SDS011;57598;50.888;4.746;2023-04-15T09:19:22;27.52;;;22.17;;
21569;SDS011;57598;50.888;4.746;2023-04-15T09:21:50;24.15;;;22.00;;
21569;SDS011;57598;50.888;4.746;2023-04-15T09:24:19;23.95;;;22.30;;
21569;SDS011;57598;50.888;4.746;2023-04-15T09:26:47;22.17;;;20.75;;
21569;SDS011;57598;50.888;4.746;2023-04-15T09:29:18;22.50;;;21.10;;
21569;SDS011;57598;50.888;4.746;2023-04-15T09:31:45;21.92;;;20.45;;
21569;SDS011;57598;50.888;4.746;2023-04-15T09:34:13;22.17;;;20.63;;
21569;SDS011;57598;50.888;4.746;2023-04-15T09:36:50;21.27;;;19.98;;
21569;SDS011;57598;50.888;4.746;2023-04-15T09:39:19;23.02;;;21.52;;
21569;SDS011;57598;50.888;4.746;2023-04-15T09:41:48;23.63;;;21.98;;
21569;SDS011;57598;50.888;4.746;2023-04-15T09:44:30;20.98;;;19.65;;
21569;SDS011;57598;50.888;4.746;2023-04-15T09:46:57;21.80;;;20.30;;
21569;SDS011;57598;50.888;4.746;2023-04-15T09:49:24;20.70;;;19.40;;
21569;SDS011;57598;50.888;4.746;2023-04-15T09:51:56;20.48;;;19.17;;
21569;SDS011;57598;50.888;4.746;2023-04-15T09:54:25;21.48;;;20.00;;
21569;SDS011;57598;50.888;4.746;2023-04-15T09:57:05;22.85;;;21.10;;
21569;SDS011;57598;50.888;4.746;2023-04-15T09:59:33;20.20;;;18.90;;
21569;SDS011;57598;50.888;4.746;2023-04-15T10:02:01;20.90;;;19.65;;
21569;SDS011;57598;50.888;4.746;2023-04-15T10:04:31;20.63;;;19.03;;
21569;SDS011;57598;50.888;4.746;2023-04-15T10:07:02;22.13;;;20.77;;
21569;SDS011;57598;50.888;4.746;2023-04-15T10:09:30;20.70;;;19.30;;
21569;SDS011;57598;50.888;4.746;2023-04-15T10:11:58;19.05;;;17.95;;
21569;SDS011;57598;50.888;4.746;2023-04-15T10:14:28;19.60;;;18.40;;
21569;SDS011;57598;50.888;4.746;2023-04-15T10:17:00;21.52;;;20.20;;
21569;SDS011;57598;50.888;4.746;2023-04-15T10:19:29;21.90;;;20.55;;
21569;SDS011;57598;50.888;4.746;2023-04-15T10:21:58;21.52;;;20.15;;
21569;SDS011;57598;50.888;4.746;2023-04-15T10:24:26;21.88;;;20.42;;
21569;SDS011;57598;50.888;4.746;2023-04-15T10:26:53;21.05;;;19.75;;
21569;SDS011;57598;50.888;4.746;2023-04-15T10:29:21;21.70;;;20.30;;
21569;SDS011;57598;50.888;4.746;2023-04-15T10:31:52;20.85;;;19.55;;
21569;SDS011;57598;50.888;4.746;2023-04-15T10:34:20;19.50;;;18.30;;
21569;SDS011;57598;50.888;4.746;2023-04-15T10:36:49;18.70;;;17.60;;
21569;SDS011;57598;50.888;4.746;2023-04-15T10:42:07;23.63;;;19.63;;
21569;SDS011;57598;50.888;4.746;2023-04-15T10:44:35;19.00;;;17.80;;
21569;SDS011;57598;50.888;4.746;2023-04-15T10:47:11;18.33;;;17.20;;
21569;SDS011;57598;50.888;4.746;2023-04-15T10:49:43;19.98;;;18.67;;
21569;SDS011;57598;50.888;4.746;2023-04-15T10:52:13;20.35;;;18.67;;
21569;SDS011;57598;50.888;4.746;2023-04-15T10:54:41;21.23;;;19.85;;
21569;SDS011;57598;50.888;4.746;2023-04-15T10:57:09;18.05;;;17.02;;
21569;SDS011;57598;50.888;4.746;2023-04-15T11:02:47;20.02;;;18.83;;
21569;SDS011;57598;50.888;4.746;2023-04-15T11:05:19;18.92;;;17.83;;
21569;SDS011;57598;50.888;4.746;2023-04-15T11:07:49;19.40;;;18.10;;
21569;SDS011;57598;50.888;4.746;2023-04-15T11:13:25;19.75;;;18.63;;
21569;SDS011;57598;50.888;4.746;2023-04-15T11:15:55;20.88;;;19.48;;
21569;SDS011;57598;50.888;4.746;2023-04-15T11:18:29;19.70;;;18.55;;
21569;SDS011;57598;50.888;4.746;2023-04-15T11:20:57;20.30;;;19.10;;
21569;SDS011;57598;50.888;4.746;2023-04-15T11:23:27;19.30;;;18.20;;
21569;SDS011;57598;50.888;4.746;2023-04-15T11:25:56;20.10;;;18.90;;
21569;SDS011;57598;50.888;4.746;2023-04-15T11:28:25;20.80;;;19.48;;
21569;SDS011;57598;50.888;4.746;2023-04-15T11:30:53;20.75;;;19.55;;
21569;SDS011;57598;50.888;4.746;2023-04-15T11:33:21;20.67;;;19.38;;
21569;SDS011;57598;50.888;4.746;2023-04-15T11:35:50;22.38;;;20.80;;
21569;SDS011;57598;50.888;4.746;2023-04-15T11:38:18;20.52;;;19.05;;
21569;SDS011;57598;50.888;4.746;2023-04-15T11:40:46;19.83;;;18.73;;
21569;SDS011;57598;50.888;4.746;2023-04-15T11:43:14;22.05;;;20.70;;
21569;SDS011;57598;50.888;4.746;2023-04-15T11:45:52;19.70;;;18.50;;
21569;SDS011;57598;50.888;4.746;2023-04-15T11:48:21;19.77;;;18.48;;
21569;SDS011;57598;50.888;4.746;2023-04-15T11:50:54;19.92;;;18.70;;
21569;SDS011;57598;50.888;4.746;2023-04-15T11:53:22;19.60;;;18.40;;
21569;SDS011;57598;50.888;4.746;2023-04-15T11:55:50;21.52;;;19.98;;
21569;SDS011;57598;50.888;4.746;2023-04-15T11:58:19;20.58;;;19.38;;
21569;SDS011;57598;50.888;4.746;2023-04-15T12:00:47;21.08;;;19.70;;
21569;SDS011;57598;50.888;4.746;2023-04-15T12:03:17;21.58;;;20.08;;
21569;SDS011;57598;50.888;4.746;2023-04-15T12:06:06;20.70;;;19.50;;
21569;SDS011;57598;50.888;4.746;2023-04-15T12:08:52;21.33;;;19.70;;
21569;SDS011;57598;50.888;4.746;2023-04-15T12:14:12;19.92;;;18.83;;
21569;SDS011;57598;50.888;4.746;2023-04-15T12:16:45;20.73;;;19.33;;
21569;SDS011;57598;50.888;4.746;2023-04-15T12:19:14;21.50;;;20.20;;
21569;SDS011;57598;50.888;4.746;2023-04-15T12:21:45;20.85;;;19.55;;
21569;SDS011;57598;50.888;4.746;2023-04-15T12:24:13;21.65;;;20.05;;
21569;SDS011;57598;50.888;4.746;2023-04-15T12:26:44;20.52;;;19.30;;
21569;SDS011;57598;50.888;4.746;2023-04-15T12:29:12;20.63;;;19.42;;
21569;SDS011;57598;50.888;4.746;2023-04-15T12:31:49;19.88;;;18.77;;
21569;SDS011;57598;50.888;4.746;2023-04-15T12:34:18;20.15;;;18.85;;
21569;SDS011;57598;50.888;4.746;2023-04-15T12:36:55;20.90;;;19.63;;
21569;SDS011;57598;50.888;4.746;2023-04-15T12:39:23;20.58;;;19.38;;
21569;SDS011;57598;50.888;4.746;2023-04-15T12:41:50;20.25;;;19.05;;
21569;SDS011;57598;50.888;4.746;2023-04-15T12:44:17;20.50;;;19.30;;
21569;SDS011;57598;50.888;4.746;2023-04-15T12:46:45;20.42;;;19.15;;
21569;SDS011;57598;50.888;4.746;2023-04-15T12:49:12;18.35;;;17.25;;
21569;SDS011;57598;50.888;4.746;2023-04-15T12:51:40;20.33;;;18.85;;
21569;SDS011;57598;50.888;4.746;2023-04-15T12:54:08;18.70;;;17.60;;
21569;SDS011;57598;50.888;4.746;2023-04-15T12:56:35;19.35;;;18.25;;
21569;SDS011;57598;50.888;4.746;2023-04-15T12:59:02;18.58;;;17.48;;
21569;SDS011;57598;50.888;4.746;2023-04-15T13:01:29;19.25;;;18.15;;
21569;SDS011;57598;50.888;4.746;2023-04-15T13:03:56;19.95;;;18.75;;
21569;SDS011;57598;50.888;4.746;2023-04-15T13:06:23;18.92;;;17.83;;
21569;SDS011;57598;50.888;4.746;2023-04-15T13:08:50;19.13;;;18.02;;
21569;SDS011;57598;50.888;4.746;2023-04-15T13:11:21;19.00;;;17.90;;
21569;SDS011;57598;50.888;4.746;2023-04-15T13:13:48;21.73;;;19.10;;
21569;SDS011;57598;50.888;4.746;2023-04-15T13:16:16;18.88;;;17.77;;
21569;SDS011;57598;50.888;4.746;2023-04-15T13:18:43;19.05;;;17.95;;
21569;SDS011;57598;50.888;4.746;2023-04-15T13:21:10;18.50;;;17.40;;
21569;SDS011;57598;50.888;4.746;2023-04-15T13:23:39;19.58;;;18.45;;
21569;SDS011;57598;50.888;4.746;2023-04-15T13:26:07;19.60;;;18.42;;
21569;SDS011;57598;50.888;4.746;2023-04-15T13:28:35;19.00;;;17.90;;
21569;SDS011;57598;50.888;4.746;2023-04-15T13:31:02;19.13;;;18.02;;
21569;SDS011;57598;50.888;4.746;2023-04-15T13:33:30;19.17;;;17.98;;
21569;SDS011;57598;50.888;4.746;2023-04-15T13:35:57;20.30;;;18.38;;
21569;SDS011;57598;50.888;4.746;2023-04-15T13:38:24;20.05;;;18.80;;
21569;SDS011;57598;50.888;4.746;2023-04-15T13:40:51;19.67;;;18.52;;
21569;SDS011;57598;50.888;4.746;2023-04-15T13:43:18;18.98;;;17.85;;
21569;SDS011;57598;50.888;4.746;2023-04-15T13:45:47;20.33;;;18.88;;
21569;SDS011;57598;50.888;4.746;2023-04-15T13:48:14;19.98;;;18.23;;
21569;SDS011;57598;50.888;4.746;2023-04-15T13:50:41;19.83;;;18.63;;
21569;SDS011;57598;50.888;4.746;2023-04-15T13:53:09;19.70;;;18.50;;
21569;SDS011;57598;50.888;4.746;2023-04-15T13:55:36;19.67;;;18.25;;
21569;SDS011;57598;50.888;4.746;2023-04-15T13:58:05;18.55;;;17.45;;
21569;SDS011;57598;50.888;4.746;2023-04-15T14:00:32;19.80;;;18.60;;
21569;SDS011;57598;50.888;4.746;2023-04-15T14:03:01;19.30;;;18.10;;
21569;SDS011;57598;50.888;4.746;2023-04-15T14:05:28;18.98;;;17.48;;
21569;SDS011;57598;50.888;4.746;2023-04-15T14:07:55;18.75;;;17.65;;
21569;SDS011;57598;50.888;4.746;2023-04-15T14:10:22;18.08;;;16.98;;
21569;SDS011;57598;50.888;4.746;2023-04-15T14:12:49;18.95;;;17.85;;
21569;SDS011;57598;50.888;4.746;2023-04-15T14:15:16;18.50;;;17.40;;
21569;SDS011;57598;50.888;4.746;2023-04-15T14:17:43;19.13;;;17.83;;
21569;SDS011;57598;50.888;4.746;2023-04-15T14:20:11;19.23;;;18.02;;
21569;SDS011;57598;50.888;4.746;2023-04-15T14:22:38;18.70;;;17.60;;
21569;SDS011;57598;50.888;4.746;2023-04-15T14:25:07;17.63;;;16.63;;
21569;SDS011;57598;50.888;4.746;2023-04-15T14:27:34;19.55;;;18.35;;
21569;SDS011;57598;50.888;4.746;2023-04-15T14:30:01;18.33;;;16.98;;
21569;SDS011;57598;50.888;4.746;2023-04-15T14:32:28;19.55;;;18.38;;
21569;SDS011;57598;50.888;4.746;2023-04-15T14:34:55;19.75;;;18.55;;
21569;SDS011;57598;50.888;4.746;2023-04-15T14:37:24;19.30;;;18.10;;
21569;SDS011;57598;50.888;4.746;2023-04-15T14:39:51;19.13;;;17.80;;
21569;SDS011;57598;50.888;4.746;2023-04-15T14:42:18;20.33;;;19.13;;
21569;SDS011;57598;50.888;4.746;2023-04-15T14:44:45;20.00;;;18.80;;